Time;durP1;ratioP1;P1;durP2;ratioP2;P2;SDS_P1;SDS_P2;PMS_P1;PMS_P2;Temp;Humidity;BMP_temperature;BMP_pressure;BME280_temperature;BME280_humidity;BME280_pressure;Samples;Min_cycle;Max_cycle;Signal;HPM_P1;HPM_P2
2021/09/17 00:00:17;;;;;;;;;;;;;;;22.79;54.69;95742.41;1047590;28;2050;-59
2021/09/17 00:00:47;;;;;;;;;;;;;;;22.79;54.69;95743.22;1049763;28;1081;-60
2021/09/17 00:01:18;;;;;;;;;;;;;;;22.79;54.63;95732.63;1044693;28;2131;-60
2021/09/17 00:01:49;;;;;;;;;;;;;;;22.79;54.70;95737.13;1045148;28;2043;-60
2021/09/17 00:02:19;;;;;;;;;;;;;;;22.79;54.67;95737.91;1048847;28;2162;-59
2021/09/17 00:02:49;;;;;;;;;;;;;;;22.80;54.34;95741.31;1048360;28;1142;-59
2021/09/17 00:03:21;;;;;;;;;;;;;;;22.80;54.48;95746.63;1049926;28;1189;-60
2021/09/17 00:03:51;;;;;;;;;;;;;;;22.79;54.69;95737.91;1049185;28;2068;-59
2021/09/17 00:04:22;;;;;;;;;;;;;;;22.80;54.57;95743.97;1048779;28;2045;-59
2021/09/17 00:04:52;;;;;;;;;;;;;;;22.79;54.41;95742.41;1045553;28;1213;-59
2021/09/17 00:05:22;;;;;;;;;;;;;;;22.78;54.51;95741.63;1045167;28;2192;-60
2021/09/17 00:05:53;;;;;;;;;;;;;;;22.78;54.42;95740.81;1048838;28;2048;-61
2021/09/17 00:06:23;;;;;;;;;;;;;;;22.80;54.58;95741.31;1049599;28;1191;-60
2021/09/17 00:06:53;;;;;;;;;;;;;;;22.79;54.67;95739.78;1050127;28;1582;-59
2021/09/17 00:07:24;;;;;;;;;;;;;;;22.80;54.34;95743.97;1048390;28;2130;-58
2021/09/17 00:07:55;;;;;;;;;;;;;;;22.79;54.73;95737.13;1047813;28;2049;-58
2021/09/17 00:08:25;;;;;;;;;;;;;;;22.80;54.43;95743.97;1043875;28;1571;-59
2021/09/17 00:08:55;;;;;;;;;;;;;;;22.79;54.23;95737.91;1046919;28;2209;-60
2021/09/17 00:09:26;;;;;;;;;;;;;;;22.79;54.66;95739.78;1046987;28;1617;-59
2021/09/17 00:09:56;;;;;;;;;;;;;;;22.79;54.44;95739.78;1046637;28;1117;-58
2021/09/17 00:10:26;;;;;;;;;;;;;;;22.79;54.45;95742.41;1047557;28;2237;-59
2021/09/17 00:10:57;;;;;;;;;;;;;;;22.80;54.57;95741.31;1048872;28;1061;-60
2021/09/17 00:11:27;;;;;;;;;;;;;;;22.79;54.40;95742.41;1048635;28;2220;-60
2021/09/17 00:11:59;;;;;;;;;;;;;;;22.79;54.51;95745.84;1049410;28;970;-59
2021/09/17 00:12:29;;;;;;;;;;;;;;;22.79;54.36;95734.50;1049238;28;1146;-57
2021/09/17 00:12:59;;;;;;;;;;;;;;;22.80;54.72;95736.03;1047168;28;2309;-60
2021/09/17 00:13:30;;;;;;;;;;;;;;;22.79;54.50;95737.13;1049353;28;1406;-59
2021/09/17 00:14:00;;;;;;;;;;;;;;;22.79;54.59;95737.13;1047518;28;2053;-59
2021/09/17 00:14:30;;;;;;;;;;;;;;;22.79;54.28;95742.41;1048029;28;2029;-60
2021/09/17 00:15:01;;;;;;;;;;;;;;;22.80;54.59;95736.03;1048852;28;1169;-59
2021/09/17 00:15:31;;;;;;;;;;;;;;;22.79;54.27;95737.13;1048436;28;2012;-60
2021/09/17 00:16:02;;;;;;;;;;;;;;;22.78;54.31;95735.53;1047356;28;2048;-60
2021/09/17 00:16:32;;;;;;;;;;;;;;;22.79;54.80;95739.78;1053385;28;1480;-60
2021/09/17 00:17:03;;;;;;;;;;;;;;;22.78;54.62;95741.63;1055057;28;2084;-57
2021/09/17 00:17:33;;;;;;;;;;;;;;;22.79;54.52;95737.91;1052509;28;1414;-60
2021/09/17 00:18:03;;;;;;;;;;;;;;;22.79;54.48;95731.84;1051086;28;2105;-60
2021/09/17 00:18:34;;;;;;;;;;;;;;;22.79;54.40;95737.13;1048031;28;1647;-61
2021/09/17 00:19:04;;;;;;;;;;;;;;;22.79;54.40;95742.41;1047998;28;1125;-59
2021/09/17 00:19:34;;;;;;;;;;;;;;;22.79;54.56;95742.41;1047696;28;2078;-61
2021/09/17 00:20:05;;;;;;;;;;;;;;;22.79;54.65;95742.41;1048268;28;2206;-60
2021/09/17 00:20:36;;;;;;;;;;;;;;;22.79;54.63;95737.13;1048346;28;2057;-61
2021/09/17 00:21:06;;;;;;;;;;;;;;;22.79;54.40;95735.28;1049200;28;1080;-59
2021/09/17 00:21:36;;;;;;;;;;;;;;;22.79;54.70;95742.41;1048447;28;2057;-60
2021/09/17 00:22:06;;;;;;;;;;;;;;;22.78;54.65;95736.34;1048312;28;2049;-60
2021/09/17 00:22:37;;;;;;;;;;;;;;;22.78;54.62;95730.25;1047736;28;2064;-59
2021/09/17 00:23:07;;;;;;;;;;;;;;;22.78;54.48;95730.25;1048119;28;2225;-57
2021/09/17 00:23:39;;;;;;;;;;;;;;;22.79;54.38;95731.84;1049310;28;756;-60
2021/09/17 00:24:10;;;;;;;;;;;;;;;22.79;54.34;95737.13;1044907;28;2057;-60
2021/09/17 00:24:40;;;;;;;;;;;;;;;22.78;54.55;95731.06;1048327;28;2554;-61
2021/09/17 00:25:10;;;;;;;;;;;;;;;22.78;54.69;95733.69;1044007;28;2026;-59
2021/09/17 00:25:41;;;;;;;;;;;;;;;22.79;54.43;95742.41;1044905;28;1215;-60
2021/09/17 00:26:11;;;;;;;;;;;;;;;22.79;54.42;95737.13;1042894;28;2202;-58
2021/09/17 00:26:41;;;;;;;;;;;;;;;22.78;54.52;95735.53;1042664;28;2184;-56
2021/09/17 00:27:12;;;;;;;;;;;;;;;22.78;54.38;95732.91;1047042;28;2213;-58
2021/09/17 00:27:42;;;;;;;;;;;;;;;22.79;54.62;95734.50;1048285;28;1403;-60
2021/09/17 00:28:13;;;;;;;;;;;;;;;22.79;54.42;95735.28;1048228;28;2139;-59
2021/09/17 00:28:43;;;;;;;;;;;;;;;22.79;54.59;95731.84;1049018;28;1178;-59
2021/09/17 00:29:13;;;;;;;;;;;;;;;22.78;54.58;95733.69;1049185;28;1135;-60
2021/09/17 00:29:44;;;;;;;;;;;;;;;22.79;54.63;95737.13;1049351;28;1072;-60
2021/09/17 00:30:14;;;;;;;;;;;;;;;22.79;54.62;95743.22;1049106;28;1186;-60
2021/09/17 00:30:44;;;;;;;;;;;;;;;22.78;54.22;95735.53;1049082;28;1894;-60
2021/09/17 00:31:15;;;;;;;;;;;;;;;22.80;54.39;95736.03;1047729;28;2045;-60
2021/09/17 00:31:45;;;;;;;;;;;;;;;22.79;54.19;95742.41;1047206;28;2081;-60
2021/09/17 00:32:15;;;;;;;;;;;;;;;22.78;54.43;95740.81;1047961;28;2156;-61
2021/09/17 00:32:46;;;;;;;;;;;;;;;22.79;54.50;95742.41;1047703;28;1018;-61
2021/09/17 00:33:16;;;;;;;;;;;;;;;22.78;54.37;95736.34;1044881;28;1961;-60
2021/09/17 00:33:47;;;;;;;;;;;;;;;22.79;54.44;95742.41;1048061;28;2052;-59
2021/09/17 00:34:17;;;;;;;;;;;;;;;22.78;54.60;95740.81;1048361;28;2000;-58
2021/09/17 00:34:47;;;;;;;;;;;;;;;22.78;54.51;95740.81;1042260;28;2117;-59
2021/09/17 00:35:17;;;;;;;;;;;;;;;22.79;54.59;95742.41;1048616;28;1634;-60
2021/09/17 00:35:48;;;;;;;;;;;;;;;22.78;54.46;95733.69;1047966;28;2139;-58
2021/09/17 00:36:18;;;;;;;;;;;;;;;22.78;54.28;95735.53;1048458;28;1657;-59
2021/09/17 00:36:48;;;;;;;;;;;;;;;22.78;54.56;95740.81;1045803;28;2163;-58
2021/09/17 00:37:19;;;;;;;;;;;;;;;22.78;54.60;95743.47;1048943;28;1194;-60
2021/09/17 00:37:49;;;;;;;;;;;;;;;22.78;54.36;95738.97;1043547;28;2044;-59
2021/09/17 00:38:19;;;;;;;;;;;;;;;22.78;54.53;95738.19;1043217;28;1477;-60
2021/09/17 00:38:50;;;;;;;;;;;;;;;22.78;54.38;95744.25;1042063;28;2168;-60
2021/09/17 00:39:20;;;;;;;;;;;;;;;22.78;54.51;95740.81;1044845;28;1151;-60
2021/09/17 00:39:50;;;;;;;;;;;;;;;22.78;54.50;95741.63;1039791;28;2191;-60
2021/09/17 00:40:21;;;;;;;;;;;;;;;22.78;54.49;95740.81;1040411;28;1474;-58
2021/09/17 00:40:51;;;;;;;;;;;;;;;22.78;54.57;95740.81;1039837;28;2210;-58
2021/09/17 00:41:22;;;;;;;;;;;;;;;22.78;54.45;95738.19;1044943;28;1373;-59
2021/09/17 00:41:52;;;;;;;;;;;;;;;22.77;54.49;95737.44;1047809;28;2093;-60
2021/09/17 00:42:22;;;;;;;;;;;;;;;22.77;54.31;95734.78;1060340;27;1150;-59
2021/09/17 00:42:53;;;;;;;;;;;;;;;22.78;54.56;95738.19;1055886;27;2206;-60
2021/09/17 00:43:23;;;;;;;;;;;;;;;22.77;54.28;95736.63;1049342;28;1158;-59
2021/09/17 00:43:54;;;;;;;;;;;;;;;22.78;54.46;95740.81;1049115;28;1044;-58
2021/09/17 00:44:25;;;;;;;;;;;;;;;22.79;54.41;95745.84;1048312;28;2070;-59
2021/09/17 00:44:55;;;;;;;;;;;;;;;22.78;54.54;95735.53;1048101;28;2103;-59
2021/09/17 00:45:25;;;;;;;;;;;;;;;22.78;54.58;95738.19;1046660;28;2150;-58
2021/09/17 00:45:56;;;;;;;;;;;;;;;22.78;54.46;95735.53;1048727;28;1190;-58
2021/09/17 00:46:26;;;;;;;;;;;;;;;22.78;54.23;95746.13;1048989;28;1147;-59
2021/09/17 00:46:56;;;;;;;;;;;;;;;22.78;54.46;95740.81;1046446;28;2088;-59
2021/09/17 00:47:27;;;;;;;;;;;;;;;22.78;54.57;95740.81;1047237;28;2018;-60
2021/09/17 00:47:57;;;;;;;;;;;;;;;22.78;54.43;95735.53;1043260;28;1069;-61
2021/09/17 00:48:27;;;;;;;;;;;;;;;22.77;54.27;95731.34;1044740;28;1227;-61
2021/09/17 00:48:57;;;;;;;;;;;;;;;22.79;54.43;95739.78;1039206;28;2036;-61
2021/09/17 00:49:28;;;;;;;;;;;;;;;22.77;54.45;95732.13;1043578;28;2069;-60
2021/09/17 00:49:58;;;;;;;;;;;;;;;22.77;54.53;95737.44;1048378;28;1492;-60
2021/09/17 00:50:28;;;;;;;;;;;;;;;22.77;54.20;95734.00;1047459;28;2395;-58
2021/09/17 00:50:59;;;;;;;;;;;;;;;22.76;54.52;95733.19;1048264;28;2397;-59
2021/09/17 00:51:29;;;;;;;;;;;;;;;22.78;54.43;95730.25;1049039;28;1346;-58
2021/09/17 00:51:59;;;;;;;;;;;;;;;22.78;54.44;95732.91;1043948;28;2097;-59
2021/09/17 00:52:30;;;;;;;;;;;;;;;22.77;54.42;95729.50;1043942;28;2672;-58
2021/09/17 00:53:03;;;;;;;;;;;;;;;22.77;54.50;95734.00;1044261;28;2125;-61
2021/09/17 00:53:33;;;;;;;;;;;;;;;22.77;54.32;95732.13;1043723;28;2189;-59
2021/09/17 00:54:04;;;;;;;;;;;;;;;22.76;54.54;95737.69;1047790;28;2211;-59
2021/09/17 00:54:34;;;;;;;;;;;;;;;22.77;54.44;95731.34;1047232;28;1951;-58
2021/09/17 00:55:05;;;;;;;;;;;;;;;22.77;54.42;95734.00;1047510;28;2124;-60
2021/09/17 00:55:35;;;;;;;;;;;;;;;22.77;54.48;95726.84;1048250;28;1574;-60
2021/09/17 00:56:05;;;;;;;;;;;;;;;22.76;54.17;95725.28;1048043;28;2170;-58
2021/09/17 00:56:36;;;;;;;;;;;;;;;22.76;54.44;95730.56;1048012;28;2248;-60
2021/09/17 00:57:06;;;;;;;;;;;;;;;22.76;54.57;95722.63;1048016;28;2057;-57
2021/09/17 00:57:37;;;;;;;;;;;;;;;22.76;54.21;95725.28;1052755;28;1453;-58
2021/09/17 00:58:07;;;;;;;;;;;;;;;22.76;54.32;95735.03;1051065;28;2188;-59
2021/09/17 00:58:37;;;;;;;;;;;;;;;22.77;54.35;95726.06;1048828;28;812;-60
2021/09/17 00:59:07;;;;;;;;;;;;;;;22.77;54.36;95726.06;1052504;28;1237;-60
2021/09/17 00:59:38;;;;;;;;;;;;;;;22.77;54.22;95732.13;1048146;28;2175;-59
2021/09/17 01:00:09;;;;;;;;;;;;;;;22.77;54.44;95728.72;1047088;28;2084;-59
2021/09/17 01:00:40;;;;;;;;;;;;;;;22.77;54.18;95731.34;1048695;28;1673;-60
2021/09/17 01:01:11;;;;;;;;;;;;;;;22.77;54.24;95731.34;1043941;28;2156;-61
2021/09/17 01:01:42;;;;;;;;;;;;;;;22.78;54.20;95727.63;1043749;28;2159;-60
2021/09/17 01:02:12;;;;;;;;;;;;;;;22.76;54.49;95727.13;1048153;28;2277;-59
2021/09/17 01:02:43;;;;;;;;;;;;;;;22.76;54.24;95727.91;1043205;28;1411;-61
2021/09/17 01:03:13;;;;;;;;;;;;;;;22.76;54.23;95722.63;1048994;28;1139;-61
2021/09/17 01:03:43;;;;;;;;;;;;;;;22.76;54.50;95727.13;1047331;28;2189;-61
2021/09/17 01:04:14;;;;;;;;;;;;;;;22.76;54.47;95727.13;1043990;28;2156;-61
2021/09/17 01:04:44;;;;;;;;;;;;;;;22.76;54.40;95719.97;1051830;28;2032;-60
2021/09/17 01:05:14;;;;;;;;;;;;;;;22.76;54.39;95725.28;1047524;28;1977;-61
2021/09/17 01:05:45;;;;;;;;;;;;;;;22.76;54.49;95721.84;1044072;28;2123;-60
2021/09/17 01:06:15;;;;;;;;;;;;;;;22.76;54.42;95722.63;1043040;28;2131;-61
2021/09/17 01:06:46;;;;;;;;;;;;;;;22.76;54.49;95722.63;1040614;28;1058;-61
2021/09/17 01:07:16;;;;;;;;;;;;;;;22.76;54.38;95724.47;1044069;28;2011;-60
2021/09/17 01:07:48;;;;;;;;;;;;;;;22.76;54.37;95716.56;1047691;28;2104;-61
2021/09/17 01:08:23;;;;;;;;;;;;;;;22.75;54.48;95723.69;1046547;28;2085;-61
2021/09/17 01:08:58;;;;;;;;;;;;;;;22.75;54.40;95715.75;1051100;28;2060;-61
2021/09/17 01:09:28;;;;;;;;;;;;;;;22.76;54.43;95721.84;1052035;28;2146;-60
2021/09/17 01:09:59;;;;;;;;;;;;;;;22.76;54.44;95722.63;1045042;28;1598;-60
2021/09/17 01:10:29;;;;;;;;;;;;;;;22.76;54.15;95721.84;1044077;28;2010;-61
2021/09/17 01:11:00;;;;;;;;;;;;;;;22.75;54.17;95720.28;1039483;28;2034;-60
2021/09/17 01:11:50;;;;;;;;;;;;;;;22.75;54.34;95720.28;1042687;28;1117;-60
2021/09/17 01:12:37;;;;;;;;;;;;;;;22.76;54.29;95721.84;1050901;28;1558;-61
2021/09/17 01:13:15;;;;;;;;;;;;;;;22.76;54.18;95727.13;1049482;28;1897;-59
2021/09/17 01:13:46;;;;;;;;;;;;;;;22.76;54.13;95721.84;1044556;28;1450;-61
2021/09/17 01:14:17;;;;;;;;;;;;;;;22.75;54.23;95723.69;1039638;28;2055;-60
2021/09/17 01:14:49;;;;;;;;;;;;;;;22.76;54.33;95721.84;1040512;28;1328;-61
2021/09/17 01:15:39;;;;;;;;;;;;;;;22.74;54.34;95719.50;1046903;28;1253;-61
2021/09/17 01:16:10;;;;;;;;;;;;;;;22.74;54.44;95716.84;1051957;28;1055;-61
2021/09/17 01:16:42;;;;;;;;;;;;;;;22.75;54.37;95720.28;1047422;28;2061;-60
2021/09/17 01:17:18;;;;;;;;;;;;;;;22.75;54.32;95717.63;1047798;28;2202;-60
2021/09/17 01:17:57;;;;;;;;;;;;;;;22.74;54.29;95716.06;1042004;28;2136;-59
2021/09/17 01:18:50;;;;;;;;;;;;;;;22.75;54.24;95721.03;1048722;28;2061;-58
2021/09/17 01:19:21;;;;;;;;;;;;;;;22.75;54.33;95712.34;1043596;28;2076;-60
2021/09/17 01:19:51;;;;;;;;;;;;;;;22.75;54.34;95715.75;1044733;28;1088;-58
2021/09/17 01:20:29;;;;;;;;;;;;;;;22.74;54.10;95716.84;1043789;28;2126;-60
2021/09/17 01:21:00;;;;;;;;;;;;;;;22.74;54.44;95713.41;1050795;28;1557;-61
2021/09/17 01:21:59;;;;;;;;;;;;;;;22.76;54.14;95716.56;1052059;28;1268;-59
2021/09/17 01:22:50;;;;;;;;;;;;;;;22.74;54.26;95710.78;1046464;28;2086;-61
2021/09/17 01:23:26;;;;;;;;;;;;;;;22.75;54.00;95715.00;1048432;28;1395;-60
2021/09/17 01:24:16;;;;;;;;;;;;;;;22.75;54.44;95715.00;1048904;28;2120;-61
2021/09/17 01:25:05;;;;;;;;;;;;;;;22.75;54.40;95707.06;1044261;28;1480;-61
2021/09/17 01:25:36;;;;;;;;;;;;;;;22.74;54.19;95711.56;1044621;28;1222;-59
2021/09/17 01:26:06;;;;;;;;;;;;;;;22.74;54.09;95705.47;1047242;28;2590;-59
2021/09/17 01:26:37;;;;;;;;;;;;;;;22.74;54.39;95714.19;1046235;28;2130;-60
2021/09/17 01:27:08;;;;;;;;;;;;;;;22.74;54.38;95718.69;1052108;28;2173;-60
2021/09/17 01:27:40;;;;;;;;;;;;;;;22.75;54.37;95709.72;1051874;28;2007;-59
2021/09/17 01:28:10;;;;;;;;;;;;;;;22.75;54.32;95704.44;1039923;28;2044;-60
2021/09/17 01:28:40;;;;;;;;;;;;;;;22.74;54.15;95702.84;1042727;28;2158;-60
2021/09/17 01:29:11;;;;;;;;;;;;;;;22.75;54.15;95709.72;1038867;28;2266;-61
2021/09/17 01:29:41;;;;;;;;;;;;;;;22.74;54.20;95702.84;1035406;28;2217;-61
2021/09/17 01:30:12;;;;;;;;;;;;;;;22.74;54.29;95702.84;1044665;28;1230;-61
2021/09/17 01:30:43;;;;;;;;;;;;;;;22.74;54.34;95705.47;1043953;28;2172;-60
2021/09/17 01:31:13;;;;;;;;;;;;;;;22.74;54.38;95702.84;1048060;28;2116;-60
2021/09/17 01:31:43;;;;;;;;;;;;;;;22.73;54.41;95702.06;1049059;28;1036;-58
2021/09/17 01:32:15;;;;;;;;;;;;;;;22.73;54.34;95698.66;1048227;28;2077;-59
2021/09/17 01:32:46;;;;;;;;;;;;;;;22.73;54.21;95701.28;1047446;28;1022;-60
2021/09/17 01:33:16;;;;;;;;;;;;;;;22.73;54.32;95702.06;1047921;28;2154;-60
2021/09/17 01:33:47;;;;;;;;;;;;;;;22.73;54.23;95702.06;1046920;28;2100;-60
2021/09/17 01:34:18;;;;;;;;;;;;;;;22.73;54.25;95702.06;1047462;28;2237;-59
2021/09/17 01:34:48;;;;;;;;;;;;;;;22.73;54.22;95701.28;1044495;28;1247;-58
2021/09/17 01:35:19;;;;;;;;;;;;;;;22.73;53.97;95702.06;1043706;28;2050;-61
2021/09/17 01:35:56;;;;;;;;;;;;;;;22.73;54.00;95693.34;1047906;28;2174;-59
2021/09/17 01:36:27;;;;;;;;;;;;;;;22.74;54.33;95700.19;1045320;28;2108;-60
2021/09/17 01:36:58;;;;;;;;;;;;;;;22.73;54.03;95696.00;1043334;28;1739;-59
2021/09/17 01:37:28;;;;;;;;;;;;;;;22.74;54.05;95702.84;1043938;28;2549;-59
2021/09/17 01:37:58;;;;;;;;;;;;;;;22.73;54.23;95694.13;1043222;28;2470;-60
2021/09/17 01:38:29;;;;;;;;;;;;;;;22.73;54.27;95693.34;1045986;28;2524;-60
2021/09/17 01:38:59;;;;;;;;;;;;;;;22.73;54.19;95693.34;1047182;28;2068;-58
2021/09/17 01:39:29;;;;;;;;;;;;;;;22.74;53.91;95692.28;1047340;28;2071;-59
2021/09/17 01:40:00;;;;;;;;;;;;;;;22.73;54.27;95694.13;1048290;28;1679;-58
2021/09/17 01:40:31;;;;;;;;;;;;;;;22.74;53.97;95692.28;1044166;28;2120;-59
2021/09/17 01:41:01;;;;;;;;;;;;;;;22.73;54.14;95691.47;1044265;28;1506;-60
2021/09/17 01:41:31;;;;;;;;;;;;;;;22.73;54.12;95696.00;1048959;28;843;-58
2021/09/17 01:42:02;;;;;;;;;;;;;;;22.72;54.21;95692.56;1044418;28;1183;-60
2021/09/17 01:42:32;;;;;;;;;;;;;;;22.73;54.03;95696.75;1049605;28;1146;-59
2021/09/17 01:43:02;;;;;;;;;;;;;;;22.73;54.14;95696.00;1043151;28;2164;-58
2021/09/17 01:43:33;;;;;;;;;;;;;;;22.73;54.21;95696.00;1044601;28;1191;-58
2021/09/17 01:44:03;;;;;;;;;;;;;;;22.73;54.21;95691.47;1047645;28;2046;-59
2021/09/17 01:44:34;;;;;;;;;;;;;;;22.73;53.96;95696.00;1046420;28;2235;-61
2021/09/17 01:45:05;;;;;;;;;;;;;;;22.73;54.32;95696.00;1044477;28;1093;-60
2021/09/17 01:45:35;;;;;;;;;;;;;;;22.73;53.97;95690.72;1039721;28;2167;-60
2021/09/17 01:46:06;;;;;;;;;;;;;;;22.72;54.26;95692.56;1040468;28;1405;-59
2021/09/17 01:46:36;;;;;;;;;;;;;;;22.73;54.16;95690.72;1035621;28;2129;-60
2021/09/17 01:47:06;;;;;;;;;;;;;;;22.74;54.18;95692.28;1044088;28;1125;-61
2021/09/17 01:47:38;;;;;;;;;;;;;;;22.73;53.89;95690.72;1047613;28;1006;-60
2021/09/17 01:48:08;;;;;;;;;;;;;;;22.73;54.26;95693.34;1044509;28;1137;-60
2021/09/17 01:48:38;;;;;;;;;;;;;;;22.74;54.19;95694.91;1047492;28;2063;-58
2021/09/17 01:49:09;;;;;;;;;;;;;;;22.73;54.34;95693.34;1047994;28;2223;-59
2021/09/17 01:49:39;;;;;;;;;;;;;;;22.73;53.95;95690.72;1048108;28;2216;-59
2021/09/17 01:50:09;;;;;;;;;;;;;;;22.73;54.26;95690.72;1048520;28;1081;-57
2021/09/17 01:50:40;;;;;;;;;;;;;;;22.74;54.01;95694.91;1047944;28;2189;-57
2021/09/17 01:51:10;;;;;;;;;;;;;;;22.74;54.19;95694.91;1040344;28;1416;-59
2021/09/17 01:51:40;;;;;;;;;;;;;;;22.73;53.95;95685.44;1041727;28;2066;-59
2021/09/17 01:52:10;;;;;;;;;;;;;;;22.73;53.99;95691.47;1044154;28;1418;-61
2021/09/17 01:52:41;;;;;;;;;;;;;;;22.73;54.25;95691.47;1039815;28;1479;-59
2021/09/17 01:53:11;;;;;;;;;;;;;;;22.74;53.92;95687.00;1048571;28;1906;-60
2021/09/17 01:53:42;;;;;;;;;;;;;;;22.73;54.21;95694.13;1039463;28;2261;-60
2021/09/17 01:54:12;;;;;;;;;;;;;;;22.73;54.07;95690.72;1044437;28;1123;-58
2021/09/17 01:54:42;;;;;;;;;;;;;;;22.73;54.04;95688.06;1045494;28;2085;-61
2021/09/17 01:55:13;;;;;;;;;;;;;;;22.73;54.06;95688.84;1048771;28;1146;-61
2021/09/17 01:55:43;;;;;;;;;;;;;;;22.73;54.16;95690.72;1049094;28;1067;-60
2021/09/17 01:56:13;;;;;;;;;;;;;;;22.72;54.05;95689.94;1047884;28;2199;-59
2021/09/17 01:56:44;;;;;;;;;;;;;;;22.74;54.31;95690.41;1047601;28;2353;-59
2021/09/17 01:57:14;;;;;;;;;;;;;;;22.73;54.10;95688.84;1043842;28;2092;-58
2021/09/17 01:57:45;;;;;;;;;;;;;;;22.73;54.26;95690.72;1043488;28;2098;-60
2021/09/17 01:58:15;;;;;;;;;;;;;;;22.73;54.18;95691.47;1043122;28;1641;-61
2021/09/17 01:58:45;;;;;;;;;;;;;;;22.74;54.01;95692.28;1048401;28;1407;-61
2021/09/17 01:59:16;;;;;;;;;;;;;;;22.73;54.28;95696.75;1047726;28;2236;-60
2021/09/17 01:59:46;;;;;;;;;;;;;;;22.73;54.28;95690.72;1045867;28;2057;-58
2021/09/17 02:00:16;;;;;;;;;;;;;;;22.72;54.02;95689.13;1047847;28;2169;-59
2021/09/17 02:00:47;;;;;;;;;;;;;;;22.72;54.28;95689.94;1047141;28;2154;-59
2021/09/17 02:01:17;;;;;;;;;;;;;;;22.73;54.27;95696.75;1048041;28;1090;-59
2021/09/17 02:01:48;;;;;;;;;;;;;;;22.73;54.05;95693.34;1046817;28;2067;-61
2021/09/17 02:02:18;;;;;;;;;;;;;;;22.73;54.20;95696.00;1048007;28;2123;-60
2021/09/17 02:02:50;;;;;;;;;;;;;;;22.74;54.16;95692.28;1046649;28;2073;-59
2021/09/17 02:03:20;;;;;;;;;;;;;;;22.73;54.00;95698.66;1048789;28;1178;-60
2021/09/17 02:03:51;;;;;;;;;;;;;;;22.73;54.12;95690.72;1048846;28;1393;-60
2021/09/17 02:04:21;;;;;;;;;;;;;;;22.74;54.17;95692.28;1048156;28;2051;-59
2021/09/17 02:04:52;;;;;;;;;;;;;;;22.74;54.11;95694.91;1047683;28;2013;-60
2021/09/17 02:05:22;;;;;;;;;;;;;;;22.73;53.96;95691.47;1048474;28;1095;-58
2021/09/17 02:05:52;;;;;;;;;;;;;;;22.74;54.29;95700.19;1048670;28;1076;-57
2021/09/17 02:06:23;;;;;;;;;;;;;;;22.73;54.21;95693.34;1047540;28;2210;-58
2021/09/17 02:06:54;;;;;;;;;;;;;;;22.74;53.96;95694.91;1047830;28;2111;-61
2021/09/17 02:07:24;;;;;;;;;;;;;;;22.74;54.12;95692.28;1051765;28;2059;-61
2021/09/17 02:07:55;;;;;;;;;;;;;;;22.73;53.95;95691.47;1052464;28;1174;-60
2021/09/17 02:08:25;;;;;;;;;;;;;;;22.74;54.11;95697.56;1051674;28;1485;-58
2021/09/17 02:08:56;;;;;;;;;;;;;;;22.74;54.21;95695.72;1052425;28;1526;-59
2021/09/17 02:09:26;;;;;;;;;;;;;;;22.74;54.13;95692.28;1042139;28;2006;-60
2021/09/17 02:09:57;;;;;;;;;;;;;;;22.74;54.23;95693.06;1039568;28;2143;-60
2021/09/17 02:10:27;;;;;;;;;;;;;;;22.74;54.04;95692.28;1040641;28;898;-60
2021/09/17 02:10:57;;;;;;;;;;;;;;;22.74;54.21;95695.72;1043584;28;2085;-59
2021/09/17 02:11:28;;;;;;;;;;;;;;;22.74;54.05;95694.91;1048464;28;986;-58
2021/09/17 02:11:58;;;;;;;;;;;;;;;22.74;54.27;95693.06;1048943;28;1059;-60
2021/09/17 02:12:28;;;;;;;;;;;;;;;22.74;54.24;95692.28;1048577;28;1457;-59
2021/09/17 02:12:58;;;;;;;;;;;;;;;22.74;54.05;95692.28;1047558;28;2234;-59
2021/09/17 02:13:29;;;;;;;;;;;;;;;22.74;54.17;95692.28;1047840;28;2178;-60
2021/09/17 02:14:01;;;;;;;;;;;;;;;22.73;54.18;95696.75;1047631;28;2091;-60
2021/09/17 02:14:31;;;;;;;;;;;;;;;22.73;53.96;95696.00;1047880;28;2190;-59
2021/09/17 02:15:03;;;;;;;;;;;;;;;22.74;54.11;95697.56;1039444;28;2207;-59
2021/09/17 02:15:33;;;;;;;;;;;;;;;22.73;54.14;95696.75;1039378;28;2166;-59
2021/09/17 02:16:03;;;;;;;;;;;;;;;22.74;54.19;95697.56;1043558;28;1054;-60
2021/09/17 02:16:34;;;;;;;;;;;;;;;22.73;53.84;95690.72;1041381;28;2192;-60
2021/09/17 02:17:04;;;;;;;;;;;;;;;22.73;54.20;95693.34;1054910;28;2100;-60
2021/09/17 02:17:34;;;;;;;;;;;;;;;22.73;54.03;95698.66;1055000;28;2252;-60
2021/09/17 02:18:05;;;;;;;;;;;;;;;22.72;54.26;95697.84;1051732;28;2086;-60
2021/09/17 02:18:35;;;;;;;;;;;;;;;22.73;54.21;95696.00;1051273;28;2061;-60
2021/09/17 02:19:06;;;;;;;;;;;;;;;22.73;53.90;95696.75;1051205;28;2044;-61
2021/09/17 02:19:36;;;;;;;;;;;;;;;22.74;54.09;95700.19;1051119;28;2188;-59
2021/09/17 02:20:07;;;;;;;;;;;;;;;22.73;54.17;95698.66;1052562;28;1006;-59
2021/09/17 02:20:37;;;;;;;;;;;;;;;22.72;53.91;95695.22;1052778;28;1190;-60
2021/09/17 02:21:08;;;;;;;;;;;;;;;22.73;54.11;95696.00;1052520;28;1355;-58
2021/09/17 02:21:39;;;;;;;;;;;;;;;22.72;54.16;95697.06;1051937;28;2038;-60
2021/09/17 02:22:09;;;;;;;;;;;;;;;22.72;54.17;95694.41;1056651;28;1295;-60
2021/09/17 02:22:40;;;;;;;;;;;;;;;22.73;53.85;95691.47;1056595;28;1037;-60
2021/09/17 02:23:10;;;;;;;;;;;;;;;22.72;53.88;95697.06;1047001;28;2109;-59
2021/09/17 02:23:40;;;;;;;;;;;;;;;22.73;53.81;95696.75;1048140;28;1501;-60
2021/09/17 02:24:11;;;;;;;;;;;;;;;22.73;54.14;95696.75;1039832;28;2389;-60
2021/09/17 02:24:41;;;;;;;;;;;;;;;22.73;54.06;95698.66;1039755;28;2186;-59
2021/09/17 02:25:11;;;;;;;;;;;;;;;22.73;53.92;95693.34;1044498;28;1183;-59
2021/09/17 02:25:41;;;;;;;;;;;;;;;22.74;53.94;95702.84;1039397;28;2116;-58
2021/09/17 02:26:12;;;;;;;;;;;;;;;22.73;54.12;95693.34;1047035;28;2040;-59
2021/09/17 02:26:42;;;;;;;;;;;;;;;22.73;54.24;95696.00;1045279;28;962;-60
2021/09/17 02:27:12;;;;;;;;;;;;;;;22.73;54.20;95696.75;1047346;28;2095;-59
2021/09/17 02:27:43;;;;;;;;;;;;;;;22.73;54.22;95703.94;1047524;28;2022;-59
2021/09/17 02:28:13;;;;;;;;;;;;;;;22.73;53.81;95696.75;1048382;28;1220;-58
2021/09/17 02:28:44;;;;;;;;;;;;;;;22.72;54.12;95703.13;1044525;28;1155;-59
2021/09/17 02:29:15;;;;;;;;;;;;;;;22.73;54.00;95703.94;1043611;28;2059;-60
2021/09/17 02:29:46;;;;;;;;;;;;;;;22.73;53.97;95704.69;1046862;28;2107;-60
2021/09/17 02:30:16;;;;;;;;;;;;;;;22.73;54.02;95701.28;1048459;28;1142;-60
2021/09/17 02:30:47;;;;;;;;;;;;;;;22.72;54.13;95700.50;1047617;28;2017;-59
2021/09/17 02:31:17;;;;;;;;;;;;;;;22.73;54.16;95703.94;1048538;28;1234;-60
2021/09/17 02:31:48;;;;;;;;;;;;;;;22.72;54.09;95705.00;1047787;28;2072;-60
2021/09/17 02:32:18;;;;;;;;;;;;;;;22.74;54.05;95708.13;1037100;28;1287;-58
2021/09/17 02:32:49;;;;;;;;;;;;;;;22.72;53.97;95703.13;1039058;28;1023;-60
2021/09/17 02:33:19;;;;;;;;;;;;;;;22.72;53.95;95708.41;1035318;28;1906;-60
2021/09/17 02:33:49;;;;;;;;;;;;;;;22.72;54.12;95715.56;1032182;28;1587;-60
2021/09/17 02:34:19;;;;;;;;;;;;;;;22.73;53.77;95706.56;1044210;28;1123;-59
2021/09/17 02:34:50;;;;;;;;;;;;;;;22.73;54.13;95711.84;1043567;28;2238;-61
2021/09/17 02:35:20;;;;;;;;;;;;;;;22.73;54.07;95719.78;1043629;28;2169;-60
2021/09/17 02:35:51;;;;;;;;;;;;;;;22.73;54.14;95709.97;1043790;28;2192;-60
2021/09/17 02:36:21;;;;;;;;;;;;;;;22.72;53.98;95707.63;1038790;28;2074;-58
2021/09/17 02:36:51;;;;;;;;;;;;;;;22.72;54.05;95713.72;1042005;28;1230;-59
2021/09/17 02:37:22;;;;;;;;;;;;;;;22.72;54.18;95716.34;1043622;28;2224;-60
2021/09/17 02:37:52;;;;;;;;;;;;;;;22.72;53.90;95711.06;1052591;28;1112;-57
2021/09/17 02:38:22;;;;;;;;;;;;;;;22.72;54.09;95712.91;1055716;28;1441;-58
2021/09/17 02:38:53;;;;;;;;;;;;;;;22.72;53.97;95711.06;1056569;28;1405;-59
2021/09/17 02:39:23;;;;;;;;;;;;;;;22.72;53.78;95707.63;1056790;28;1247;-60
2021/09/17 02:39:53;;;;;;;;;;;;;;;22.73;54.00;95706.56;1047140;28;2146;-59
2021/09/17 02:40:24;;;;;;;;;;;;;;;22.73;53.88;95703.94;1047024;28;2181;-59
2021/09/17 02:40:55;;;;;;;;;;;;;;;22.72;54.16;95711.06;1046970;28;2051;-60
2021/09/17 02:41:25;;;;;;;;;;;;;;;22.71;53.97;95706.84;1047968;28;2110;-58
2021/09/17 02:41:55;;;;;;;;;;;;;;;22.72;54.18;95705.00;1047408;28;2052;-60
2021/09/17 02:42:26;;;;;;;;;;;;;;;22.73;54.02;95711.84;1051664;28;1544;-60
2021/09/17 02:42:56;;;;;;;;;;;;;;;22.71;53.81;95704.19;1045000;28;2062;-60
2021/09/17 02:43:27;;;;;;;;;;;;;;;22.72;54.16;95705.00;1048503;28;1145;-59
2021/09/17 02:43:57;;;;;;;;;;;;;;;22.72;54.12;95705.78;1046908;28;2054;-60
2021/09/17 02:44:27;;;;;;;;;;;;;;;22.72;54.06;95699.69;1047997;28;1702;-61